Time;durP1;ratioP1;P1;durP2;ratioP2;P2;SDS_P1;SDS_P2;PMS_P1;PMS_P2;Temp;Humidity;BMP_temperature;BMP_pressure;BME280_temperature;BME280_humidity;BME280_pressure;Samples;Min_cycle;Max_cycle;Signal;HPM_P1;HPM_P2
2021/04/04 00:00:29;;;;;;;8.40;2.70;;;;;;;;;;5079318;28;20205;-69
2021/04/04 00:02:54;;;;;;;12.83;3.30;;;;;;;;;;5086765;28;20739;-69
2021/04/04 00:05:19;;;;;;;5.13;2.57;;;;;;;;;;5077544;28;20610;-68
2021/04/04 00:07:44;;;;;;;11.80;2.97;;;;;;;;;;5087589;28;20191;-69
2021/04/04 00:10:11;;;;;;;15.10;3.47;;;;;;;;;;5083869;28;20294;-68
2021/04/04 00:12:36;;;;;;;13.70;3.27;;;;;;;;;;5081272;28;20173;-69
2021/04/04 00:15:01;;;;;;;17.10;3.63;;;;;;;;;;5082258;28;20257;-69
2021/04/04 00:17:26;;;;;;;18.40;4.43;;;;;;;;;;5084721;28;20204;-68
2021/04/04 00:19:52;;;;;;;9.50;2.57;;;;;;;;;;5086014;28;20705;-68
2021/04/04 00:22:17;;;;;;;11.97;3.07;;;;;;;;;;5086294;28;20178;-69
2021/04/04 00:24:42;;;;;;;14.73;3.30;;;;;;;;;;5081317;28;20177;-68
2021/04/04 00:27:07;;;;;;;7.33;2.80;;;;;;;;;;5091022;28;20176;-68
2021/04/04 00:29:32;;;;;;;8.77;3.17;;;;;;;;;;5093037;28;20241;-67
2021/04/04 00:31:58;;;;;;;11.07;3.20;;;;;;;;;;5081005;28;20314;-69
2021/04/04 00:34:23;;;;;;;10.33;3.07;;;;;;;;;;5089024;28;20192;-68
2021/04/04 00:36:49;;;;;;;12.50;4.57;;;;;;;;;;5079695;28;20204;-69
2021/04/04 00:39:14;;;;;;;9.20;2.90;;;;;;;;;;5081281;28;20212;-69
2021/04/04 00:41:39;;;;;;;12.10;3.20;;;;;;;;;;5078506;28;20559;-69
2021/04/04 00:44:05;;;;;;;15.20;3.83;;;;;;;;;;5082337;28;20187;-68
2021/04/04 00:46:30;;;;;;;9.90;3.27;;;;;;;;;;5085982;28;20271;-69
2021/04/04 00:48:56;;;;;;;12.33;3.43;;;;;;;;;;5085639;28;20192;-69
2021/04/04 00:51:21;;;;;;;12.03;3.63;;;;;;;;;;5085558;28;20291;-69
2021/04/04 00:53:46;;;;;;;10.43;2.90;;;;;;;;;;5081867;28;20192;-68
2021/04/04 00:56:12;;;;;;;8.27;3.90;;;;;;;;;;5089634;28;20204;-69
2021/04/04 00:58:37;;;;;;;7.90;2.87;;;;;;;;;;5082260;28;20184;-69
2021/04/04 01:01:03;;;;;;;10.13;2.97;;;;;;;;;;5080377;28;20188;-69
2021/04/04 01:03:28;;;;;;;19.07;4.57;;;;;;;;;;5083197;28;20183;-69
2021/04/04 01:05:54;;;;;;;7.87;2.93;;;;;;;;;;5083060;28;20180;-68
2021/04/04 01:08:19;;;;;;;8.40;2.60;;;;;;;;;;5083822;28;20271;-68
2021/04/04 01:10:46;;;;;;;11.23;3.87;;;;;;;;;;5075660;28;20319;-68
2021/04/04 01:13:11;;;;;;;8.10;2.87;;;;;;;;;;5084329;28;20176;-69
2021/04/04 01:15:37;;;;;;;15.83;3.10;;;;;;;;;;5087374;28;20176;-69
2021/04/04 01:18:07;;;;;;;9.30;3.03;;;;;;;;;;5087269;28;20246;-69
2021/04/04 01:20:42;;;;;;;8.53;2.40;;;;;;;;;;5080637;28;20193;-68
2021/04/04 01:23:13;;;;;;;9.17;2.77;;;;;;;;;;5091566;28;20172;-69
2021/04/04 01:25:39;;;;;;;12.20;2.47;;;;;;;;;;5080040;27;20369;-70
2021/04/04 01:28:11;;;;;;;14.60;3.87;;;;;;;;;;5086588;28;20670;-70
2021/04/04 01:30:37;;;;;;;10.17;2.70;;;;;;;;;;5079564;28;20192;-69
2021/04/04 01:33:03;;;;;;;7.07;2.20;;;;;;;;;;5083265;28;20251;-68
2021/04/04 01:35:31;;;;;;;9.67;3.07;;;;;;;;;;5091212;28;20284;-70
2021/04/04 01:37:58;;;;;;;8.77;2.63;;;;;;;;;;5085397;28;20705;-69
2021/04/04 01:40:25;;;;;;;9.40;3.27;;;;;;;;;;5084018;28;20197;-68
2021/04/04 01:42:51;;;;;;;11.20;3.37;;;;;;;;;;5087206;28;20192;-69
2021/04/04 01:45:18;;;;;;;14.23;2.90;;;;;;;;;;5083450;28;20180;-68
2021/04/04 01:47:45;;;;;;;9.27;3.23;;;;;;;;;;5087984;28;20187;-70
2021/04/04 01:50:10;;;;;;;5.87;2.30;;;;;;;;;;5082266;28;20692;-68
2021/04/04 01:52:36;;;;;;;11.97;4.10;;;;;;;;;;5086342;28;20176;-70
2021/04/04 01:55:03;;;;;;;8.27;3.40;;;;;;;;;;5085959;28;20196;-70
2021/04/04 01:57:29;;;;;;;6.30;2.73;;;;;;;;;;5086638;28;20204;-70
2021/04/04 01:59:55;;;;;;;9.43;2.80;;;;;;;;;;5079320;28;20193;-67
2021/04/04 02:02:20;;;;;;;13.27;3.70;;;;;;;;;;5085159;28;20252;-69
2021/04/04 02:04:45;;;;;;;8.63;2.37;;;;;;;;;;5082516;28;20622;-68
2021/04/04 02:07:14;;;;;;;11.77;3.27;;;;;;;;;;5079191;28;20175;-69
2021/04/04 02:09:40;;;;;;;11.47;2.80;;;;;;;;;;5072764;28;20234;-69
2021/04/04 02:12:06;;;;;;;10.80;2.83;;;;;;;;;;5083247;28;20193;-69
2021/04/04 02:14:31;;;;;;;9.73;3.57;;;;;;;;;;5077408;28;20822;-69
2021/04/04 02:16:57;;;;;;;7.47;2.87;;;;;;;;;;5079384;28;20199;-69
2021/04/04 02:19:23;;;;;;;11.67;4.00;;;;;;;;;;5081076;28;20259;-68
2021/04/04 02:21:49;;;;;;;9.90;3.27;;;;;;;;;;5076363;28;20250;-69
2021/04/04 02:24:15;;;;;;;9.27;3.10;;;;;;;;;;5087925;28;20567;-69
2021/04/04 02:26:40;;;;;;;13.33;3.27;;;;;;;;;;5085575;28;20179;-67
2021/04/04 02:29:06;;;;;;;8.83;3.20;;;;;;;;;;5088481;28;20185;-68
2021/04/04 02:31:36;;;;;;;8.47;2.60;;;;;;;;;;5090582;28;20242;-68
2021/04/04 02:34:05;;;;;;;7.03;2.30;;;;;;;;;;5084032;28;20226;-68
2021/04/04 02:36:31;;;;;;;13.97;2.83;;;;;;;;;;5080377;28;20215;-69
2021/04/04 02:39:03;;;;;;;9.70;2.87;;;;;;;;;;5084995;28;20251;-69
2021/04/04 02:41:29;;;;;;;12.03;3.13;;;;;;;;;;5075924;28;20267;-68
2021/04/04 02:43:55;;;;;;;10.27;2.77;;;;;;;;;;5087890;28;20164;-69
2021/04/04 02:46:21;;;;;;;9.40;2.57;;;;;;;;;;5091292;28;20195;-69
2021/04/04 02:48:52;;;;;;;14.93;2.83;;;;;;;;;;5082605;28;20658;-69
2021/04/04 02:51:18;;;;;;;11.13;2.83;;;;;;;;;;5089435;28;20191;-69
2021/04/04 02:53:49;;;;;;;8.60;2.60;;;;;;;;;;5089357;28;20184;-68
2021/04/04 02:56:17;;;;;;;11.17;2.83;;;;;;;;;;5080194;28;20205;-70
2021/04/04 02:58:43;;;;;;;6.87;2.93;;;;;;;;;;5083526;28;20214;-69
2021/04/04 03:01:09;;;;;;;6.67;2.57;;;;;;;;;;5085140;28;20196;-70
2021/04/04 03:03:37;;;;;;;14.37;3.03;;;;;;;;;;5079929;28;20173;-70
2021/04/04 03:06:04;;;;;;;11.67;3.27;;;;;;;;;;5088900;28;20646;-70
2021/04/04 03:08:29;;;;;;;6.77;2.23;;;;;;;;;;5082956;28;20441;-69
2021/04/04 03:10:55;;;;;;;15.93;3.93;;;;;;;;;;5081208;28;20191;-69
2021/04/04 03:13:22;;;;;;;8.07;3.20;;;;;;;;;;5087199;28;20172;-69
2021/04/04 03:15:48;;;;;;;11.33;3.30;;;;;;;;;;5081268;28;20177;-69
2021/04/04 03:18:14;;;;;;;7.63;3.63;;;;;;;;;;5083797;28;20220;-69
2021/04/04 03:20:39;;;;;;;10.50;3.30;;;;;;;;;;5086843;28;20192;-69
2021/04/04 03:23:05;;;;;;;10.30;3.57;;;;;;;;;;5082960;28;20170;-68
2021/04/04 03:25:30;;;;;;;10.23;3.53;;;;;;;;;;5080321;28;20191;-69
2021/04/04 03:27:56;;;;;;;9.77;3.40;;;;;;;;;;5089434;28;20546;-69
2021/04/04 03:30:43;;;;;;;9.80;3.43;;;;;;;;;;5082760;28;20196;-69
2021/04/04 03:33:08;;;;;;;12.80;4.17;;;;;;;;;;5087522;28;20179;-69
2021/04/04 03:35:34;;;;;;;10.63;4.47;;;;;;;;;;5089829;28;20188;-69
2021/04/04 03:38:00;;;;;;;13.23;4.27;;;;;;;;;;5081955;28;20205;-69
2021/04/04 03:40:26;;;;;;;10.00;3.73;;;;;;;;;;5079018;28;20197;-69
2021/04/04 03:42:51;;;;;;;7.77;3.10;;;;;;;;;;5083014;28;20231;-69
2021/04/04 03:45:17;;;;;;;12.90;4.00;;;;;;;;;;5082872;28;20169;-68
2021/04/04 03:47:43;;;;;;;9.23;3.57;;;;;;;;;;5086995;28;20193;-69
2021/04/04 03:50:09;;;;;;;11.60;3.93;;;;;;;;;;5081582;28;20203;-69
2021/04/04 03:52:34;;;;;;;11.27;4.67;;;;;;;;;;5085547;28;20191;-69
2021/04/04 03:55:00;;;;;;;10.73;4.47;;;;;;;;;;5083080;28;20181;-69
2021/04/04 03:57:26;;;;;;;10.60;3.60;;;;;;;;;;5088438;28;20270;-67
2021/04/04 03:59:52;;;;;;;16.23;3.57;;;;;;;;;;5083985;28;20762;-69
2021/04/04 04:02:19;;;;;;;10.83;4.10;;;;;;;;;;5088272;28;20177;-69
2021/04/04 04:04:44;;;;;;;12.40;3.53;;;;;;;;;;5083221;28;20209;-69
2021/04/04 04:07:10;;;;;;;6.47;3.43;;;;;;;;;;5086569;28;20177;-69
2021/04/04 04:09:36;;;;;;;12.23;4.27;;;;;;;;;;5077720;28;20189;-69
2021/04/04 04:12:01;;;;;;;10.33;3.77;;;;;;;;;;5086653;28;20172;-70
2021/04/04 04:14:27;;;;;;;9.37;4.30;;;;;;;;;;5089670;28;20172;-69
2021/04/04 04:16:52;;;;;;;8.80;3.33;;;;;;;;;;5083188;28;20903;-68
2021/04/04 04:19:18;;;;;;;10.20;3.40;;;;;;;;;;5084875;28;20241;-68
2021/04/04 04:21:43;;;;;;;6.77;3.00;;;;;;;;;;5090723;28;20940;-67
2021/04/04 04:24:12;;;;;;;14.00;4.93;;;;;;;;;;5082560;28;20185;-68
2021/04/04 04:26:40;;;;;;;13.57;3.70;;;;;;;;;;5086812;28;20202;-68
2021/04/04 04:29:06;;;;;;;10.07;3.20;;;;;;;;;;5082704;28;20690;-67
2021/04/04 04:31:39;;;;;;;12.77;3.50;;;;;;;;;;5088472;28;20210;-69
2021/04/04 04:34:05;;;;;;;9.87;3.17;;;;;;;;;;5079664;28;20207;-68
2021/04/04 04:36:31;;;;;;;8.07;3.30;;;;;;;;;;5085853;28;20665;-68
2021/04/04 04:38:57;;;;;;;6.20;2.83;;;;;;;;;;5082403;28;20239;-68
2021/04/04 04:41:22;;;;;;;8.03;3.00;;;;;;;;;;5076344;28;20619;-68
2021/04/04 04:43:50;;;;;;;8.87;3.33;;;;;;;;;;5088720;28;20195;-69
2021/04/04 04:46:16;;;;;;;8.90;3.87;;;;;;;;;;5089847;28;20169;-68
2021/04/04 04:48:42;;;;;;;12.20;3.30;;;;;;;;;;5083260;28;20645;-68
2021/04/04 04:51:07;;;;;;;8.07;3.10;;;;;;;;;;5084073;28;20215;-68
2021/04/04 04:53:32;;;;;;;7.37;3.03;;;;;;;;;;5087681;28;20218;-68
2021/04/04 04:56:00;;;;;;;5.43;2.60;;;;;;;;;;5091803;28;20179;-68
2021/04/04 04:58:25;;;;;;;10.00;3.97;;;;;;;;;;5089204;28;20170;-69
2021/04/04 05:00:51;;;;;;;7.33;2.80;;;;;;;;;;5086706;28;20207;-69
2021/04/04 05:03:16;;;;;;;7.33;2.83;;;;;;;;;;5076291;28;20176;-66
2021/04/04 05:05:41;;;;;;;10.93;2.83;;;;;;;;;;5088771;28;20655;-69
2021/04/04 05:08:07;;;;;;;8.10;3.00;;;;;;;;;;5090361;28;20172;-68
2021/04/04 05:10:32;;;;;;;8.87;2.90;;;;;;;;;;5083432;28;20217;-68
2021/04/04 05:12:59;;;;;;;10.00;2.73;;;;;;;;;;5085678;28;20184;-68
2021/04/04 05:15:25;;;;;;;9.63;3.30;;;;;;;;;;5090780;28;20208;-68
2021/04/04 05:17:50;;;;;;;6.87;3.60;;;;;;;;;;5082328;28;20305;-69
2021/04/04 05:20:16;;;;;;;7.53;3.17;;;;;;;;;;5082178;28;20239;-68
2021/04/04 05:22:42;;;;;;;8.83;3.10;;;;;;;;;;5081876;28;20685;-68
2021/04/04 05:25:08;;;;;;;7.37;3.00;;;;;;;;;;5082992;28;20199;-70
2021/04/04 05:27:33;;;;;;;10.97;4.20;;;;;;;;;;5089792;28;20259;-70
2021/04/04 05:30:01;;;;;;;10.90;3.27;;;;;;;;;;5086910;28;20662;-70
2021/04/04 05:32:27;;;;;;;12.03;3.03;;;;;;;;;;5080044;28;20263;-69
2021/04/04 05:34:52;;;;;;;7.27;2.90;;;;;;;;;;5074846;28;20233;-70
2021/04/04 05:37:17;;;;;;;6.77;2.97;;;;;;;;;;5078675;28;20188;-70
2021/04/04 05:39:42;;;;;;;9.73;3.30;;;;;;;;;;5080943;28;20560;-68
2021/04/04 05:42:08;;;;;;;8.80;3.30;;;;;;;;;;5079728;28;20643;-70
2021/04/04 05:44:36;;;;;;;7.93;3.23;;;;;;;;;;5078271;28;20205;-69
2021/04/04 05:47:03;;;;;;;6.63;3.10;;;;;;;;;;5084638;28;20728;-69
2021/04/04 05:49:35;;;;;;;7.63;3.20;;;;;;;;;;5082137;28;20183;-68
2021/04/04 05:52:00;;;;;;;10.13;3.60;;;;;;;;;;5086449;28;20272;-69
2021/04/04 05:54:37;;;;;;;10.97;3.63;;;;;;;;;;5084229;28;20621;-68
2021/04/04 05:57:04;;;;;;;10.97;3.90;;;;;;;;;;5084623;28;20230;-69
2021/04/04 05:59:35;;;;;;;13.60;3.73;;;;;;;;;;5082137;28;20195;-69
2021/04/04 06:02:03;;;;;;;9.40;3.27;;;;;;;;;;5081835;28;20180;-69
2021/04/04 06:04:38;;;;;;;6.90;3.40;;;;;;;;;;5083173;28;20222;-68
2021/04/04 06:07:23;;;;;;;13.30;3.30;;;;;;;;;;5080399;28;20180;-69
2021/04/04 06:10:04;;;;;;;11.40;4.10;;;;;;;;;;5074740;28;20246;-69
2021/04/04 06:12:39;;;;;;;9.00;3.27;;;;;;;;;;5085687;28;20179;-68
2021/04/04 06:15:22;;;;;;;8.30;3.80;;;;;;;;;;5080042;28;20270;-69
2021/04/04 06:17:50;;;;;;;7.47;3.37;;;;;;;;;;5087520;28;20243;-69
2021/04/04 06:20:31;;;;;;;9.13;3.57;;;;;;;;;;5084874;28;20188;-69
2021/04/04 06:23:04;;;;;;;10.20;4.10;;;;;;;;;;5081682;28;20177;-68
2021/04/04 06:25:34;;;;;;;8.63;4.40;;;;;;;;;;5080434;28;20403;-69
2021/04/04 06:28:11;;;;;;;9.23;3.73;;;;;;;;;;5081172;28;20267;-69
2021/04/04 06:30:46;;;;;;;8.70;3.43;;;;;;;;;;5087100;28;20196;-69
2021/04/04 06:33:17;;;;;;;8.57;3.43;;;;;;;;;;5090978;28;20172;-68
2021/04/04 06:35:43;;;;;;;9.07;3.83;;;;;;;;;;5086939;28;20195;-69
2021/04/04 06:38:27;;;;;;;9.37;3.47;;;;;;;;;;5090721;28;20208;-68
2021/04/04 06:41:05;;;;;;;8.13;3.57;;;;;;;;;;5080398;28;20199;-68
2021/04/04 06:43:49;;;;;;;13.53;3.93;;;;;;;;;;5085985;28;20185;-68
2021/04/04 06:46:14;;;;;;;7.43;4.03;;;;;;;;;;5083964;28;20169;-68
2021/04/04 06:48:48;;;;;;;8.85;4.32;;;;;;;;;;5090506;28;20271;-69
2021/04/04 06:51:18;;;;;;;9.23;3.57;;;;;;;;;;5092278;28;20249;-68
2021/04/04 06:53:50;;;;;;;9.40;4.40;;;;;;;;;;5084886;28;20267;-69
2021/04/04 06:56:23;;;;;;;10.23;3.67;;;;;;;;;;5087170;28;20228;-68
2021/04/04 06:59:07;;;;;;;12.10;3.70;;;;;;;;;;5087714;28;20175;-68
2021/04/04 07:01:36;;;;;;;10.13;4.80;;;;;;;;;;5086436;28;20184;-69
2021/04/04 07:04:05;;;;;;;9.13;3.80;;;;;;;;;;5072138;28;20181;-69
2021/04/04 07:06:30;;;;;;;10.67;3.90;;;;;;;;;;5082350;28;20657;-69
2021/04/04 07:08:55;;;;;;;10.13;3.92;;;;;;;;;;5088631;28;20206;-69
2021/04/04 07:11:24;;;;;;;7.50;3.53;;;;;;;;;;5079770;28;20575;-69
2021/04/04 07:14:10;;;;;;;10.23;3.63;;;;;;;;;;5083512;28;20701;-69
2021/04/04 07:16:47;;;;;;;7.93;4.10;;;;;;;;;;5084550;28;20730;-69
2021/04/04 07:19:15;;;;;;;5.20;3.93;;;;;;;;;;5080571;28;20179;-68
2021/04/04 07:21:58;;;;;;;8.87;4.93;;;;;;;;;;5077259;28;20197;-68
2021/04/04 07:24:49;;;;;;;8.37;4.20;;;;;;;;;;5089445;28;20184;-70
2021/04/04 07:27:21;;;;;;;7.23;4.23;;;;;;;;;;5087856;28;20653;-67
2021/04/04 07:29:52;;;;;;;10.70;6.37;;;;;;;;;;5085610;28;20192;-70
2021/04/04 07:32:33;;;;;;;9.77;6.83;;;;;;;;;;5091979;28;20634;-68
2021/04/04 07:35:04;;;;;;;11.50;6.83;;;;;;;;;;5086275;28;20198;-69
2021/04/04 07:37:35;;;;;;;11.87;7.10;;;;;;;;;;5089149;28;20209;-70
2021/04/04 07:40:06;;;;;;;11.33;8.23;;;;;;;;;;5081575;28;20588;-70
2021/04/04 07:42:33;;;;;;;15.93;8.23;;;;;;;;;;5090579;28;20195;-68
2021/04/04 07:45:18;;;;;;;10.73;8.57;;;;;;;;;;5080411;28;20172;-69
2021/04/04 07:47:47;;;;;;;14.27;9.00;;;;;;;;;;5083848;28;20205;-69
2021/04/04 07:50:15;;;;;;;10.37;9.20;;;;;;;;;;5090435;28;20208;-69
2021/04/04 07:52:51;;;;;;;12.03;7.90;;;;;;;;;;5091300;28;20180;-69
2021/04/04 07:55:17;;;;;;;12.43;8.03;;;;;;;;;;5087205;28;20263;-69
2021/04/04 07:58:04;;;;;;;11.03;8.60;;;;;;;;;;5088234;28;20575;-69
2021/04/04 08:00:31;;;;;;;17.53;9.70;;;;;;;;;;5082604;28;20200;-69
2021/04/04 08:03:05;;;;;;;12.50;9.30;;;;;;;;;;5089536;28;20544;-69
2021/04/04 08:05:33;;;;;;;12.63;9.03;;;;;;;;;;5089752;28;20633;-69
2021/04/04 08:08:11;;;;;;;13.47;8.47;;;;;;;;;;5086291;28;20180;-69
2021/04/04 08:10:36;;;;;;;10.57;7.80;;;;;;;;;;5088779;28;20196;-69
2021/04/04 08:13:15;;;;;;;11.23;8.00;;;;;;;;;;5088576;28;20180;-69
2021/04/04 08:15:45;;;;;;;14.83;9.43;;;;;;;;;;5084910;28;20193;-69
2021/04/04 08:18:11;;;;;;;11.83;8.53;;;;;;;;;;5089338;28;20280;-69
2021/04/04 08:20:41;;;;;;;12.80;9.10;;;;;;;;;;5089167;28;20212;-68
2021/04/04 08:23:09;;;;;;;11.20;8.03;;;;;;;;;;5088707;28;20238;-69
2021/04/04 08:25:44;;;;;;;16.07;9.50;;;;;;;;;;5087245;28;20175;-69
2021/04/04 08:28:16;;;;;;;17.03;9.30;;;;;;;;;;5088419;28;20221;-70
2021/04/04 08:30:55;;;;;;;14.73;9.50;;;;;;;;;;5083301;28;20203;-70
2021/04/04 08:33:22;;;;;;;12.03;8.20;;;;;;;;;;5087769;28;20180;-69
2021/04/04 08:35:48;;;;;;;10.70;6.37;;;;;;;;;;5079928;28;20573;-69
2021/04/04 08:38:17;;;;;;;13.47;8.07;;;;;;;;;;5086606;28;20200;-68
2021/04/04 08:40:42;;;;;;;15.70;8.90;;;;;;;;;;5092392;28;20604;-69
2021/04/04 08:43:09;;;;;;;12.37;7.07;;;;;;;;;;5086868;28;20160;-68
2021/04/04 08:45:39;;;;;;;11.93;6.50;;;;;;;;;;5088922;28;20654;-69
2021/04/04 08:48:04;;;;;;;9.23;7.00;;;;;;;;;;5086075;28;20187;-68
2021/04/04 08:50:32;;;;;;;10.60;6.47;;;;;;;;;;5089553;28;20200;-68
2021/04/04 08:53:16;;;;;;;14.67;7.07;;;;;;;;;;5079214;28;20199;-68
2021/04/04 08:55:42;;;;;;;9.83;4.87;;;;;;;;;;5083928;28;20192;-67
2021/04/04 08:58:09;;;;;;;10.87;5.60;;;;;;;;;;5091814;28;20570;-69
2021/04/04 09:00:35;;;;;;;12.67;6.03;;;;;;;;;;5082044;28;20196;-68
2021/04/04 09:03:04;;;;;;;7.10;4.30;;;;;;;;;;5091530;28;20172;-69
2021/04/04 09:05:30;;;;;;;8.50;4.27;;;;;;;;;;5086511;28;20190;-68
2021/04/04 09:07:59;;;;;;;8.73;4.53;;;;;;;;;;5088438;28;20172;-67
2021/04/04 09:10:27;;;;;;;11.00;4.30;;;;;;;;;;5089700;28;20204;-69
2021/04/04 09:12:53;;;;;;;9.10;4.37;;;;;;;;;;5083190;28;20209;-68
2021/04/04 09:15:19;;;;;;;7.80;4.40;;;;;;;;;;5078704;28;20216;-68
2021/04/04 09:17:48;;;;;;;9.43;4.60;;;;;;;;;;5087682;28;20616;-69
2021/04/04 09:20:13;;;;;;;7.93;4.63;;;;;;;;;;5087483;28;20257;-69
2021/04/04 09:22:45;;;;;;;12.73;5.53;;;;;;;;;;5084346;28;20713;-69
2021/04/04 09:25:11;;;;;;;12.97;5.17;;;;;;;;;;5079510;28;20187;-68
2021/04/04 09:27:40;;;;;;;8.50;5.63;;;;;;;;;;5079818;28;20181;-70
2021/04/04 09:30:11;;;;;;;13.03;6.43;;;;;;;;;;5081680;28;20219;-69
2021/04/04 09:32:44;;;;;;;18.03;6.97;;;;;;;;;;5083795;28;20183;-69
2021/04/04 09:35:17;;;;;;;14.63;7.80;;;;;;;;;;5088637;28;20676;-69
2021/04/04 09:37:43;;;;;;;10.00;6.70;;;;;;;;;;5079511;28;20198;-69
2021/04/04 09:40:08;;;;;;;13.90;7.17;;;;;;;;;;5085107;28;20184;-69
2021/04/04 09:42:35;;;;;;;11.50;8.03;;;;;;;;;;5085810;28;20325;-69
2021/04/04 09:45:16;;;;;;;10.10;7.20;;;;;;;;;;5091318;28;20168;-70
2021/04/04 09:47:42;;;;;;;10.40;7.23;;;;;;;;;;5081480;28;20654;-69
2021/04/04 09:50:18;;;;;;;13.03;7.70;;;;;;;;;;5089079;28;20246;-68
2021/04/04 09:52:43;;;;;;;11.70;7.60;;;;;;;;;;5084117;28;20225;-68
2021/04/04 09:55:17;;;;;;;11.93;8.03;;;;;;;;;;5088423;28;20607;-68
2021/04/04 09:57:43;;;;;;;9.53;7.77;;;;;;;;;;5089452;28;20200;-67
2021/04/04 10:00:34;;;;;;;17.23;9.43;;;;;;;;;;5083163;28;20199;-68
2021/04/04 10:03:16;;;;;;;16.63;9.97;;;;;;;;;;5077318;28;20556;-68
2021/04/04 10:05:43;;;;;;;12.07;7.37;;;;;;;;;;5082089;28;20172;-68
2021/04/04 10:08:14;;;;;;;16.27;7.63;;;;;;;;;;5074022;28;20261;-68
2021/04/04 10:10:40;;;;;;;14.77;7.60;;;;;;;;;;5077657;28;20196;-69
2021/04/04 10:13:05;;;;;;;13.17;8.70;;;;;;;;;;5077991;28;20188;-68
2021/04/04 10:15:44;;;;;;;12.83;8.13;;;;;;;;;;5081258;28;20189;-68
2021/04/04 10:18:09;;;;;;;10.67;7.90;;;;;;;;;;5080910;28;20693;-68
2021/04/04 10:20:35;;;;;;;14.00;8.27;;;;;;;;;;5082992;28;20192;-69
2021/04/04 10:23:00;;;;;;;16.50;7.53;;;;;;;;;;5085889;28;20604;-69
2021/04/04 10:25:25;;;;;;;12.07;7.73;;;;;;;;;;5081524;28;20295;-68
2021/04/04 10:27:58;;;;;;;14.33;8.30;;;;;;;;;;5076988;28;20216;-68
2021/04/04 10:30:27;;;;;;;15.03;8.10;;;;;;;;;;5084279;28;20204;-68
2021/04/04 10:32:53;;;;;;;13.73;6.97;;;;;;;;;;5076045;28;20181;-68
2021/04/04 10:35:28;;;;;;;16.63;7.50;;;;;;;;;;5085510;28;20716;-69
2021/04/04 10:38:04;;;;;;;16.03;7.10;;;;;;;;;;5084881;28;20610;-68
2021/04/04 10:40:48;;;;;;;11.27;6.33;;;;;;;;;;5085793;28;20271;-69
2021/04/04 10:43:14;;;;;;;12.03;6.50;;;;;;;;;;5075876;28;20389;-68
2021/04/04 10:45:54;;;;;;;12.03;8.07;;;;;;;;;;5079841;28;20177;-69
2021/04/04 10:48:20;;;;;;;12.13;6.43;;;;;;;;;;5077489;28;20201;-68
2021/04/04 10:50:47;;;;;;;10.40;6.63;;;;;;;;;;5082341;28;20239;-68
2021/04/04 10:53:12;;;;;;;9.27;6.27;;;;;;;;;;5090723;28;20176;-68
2021/04/04 10:55:37;;;;;;;16.10;6.77;;;;;;;;;;5081074;28;20184;-68
2021/04/04 10:58:02;;;;;;;13.90;7.87;;;;;;;;;;5085650;28;20231;-68
2021/04/04 11:00:27;;;;;;;10.70;5.83;;;;;;;;;;5086228;28;20602;-68
2021/04/04 11:02:55;;;;;;;9.87;6.53;;;;;;;;;;5081702;28;20193;-69
2021/04/04 11:05:21;;;;;;;10.60;6.33;;;;;;;;;;5084102;28;20188;-69
2021/04/04 11:07:48;;;;;;;11.07;5.30;;;;;;;;;;5083960;28;20192;-68
2021/04/04 11:10:13;;;;;;;9.07;4.20;;;;;;;;;;5080119;28;20242;-69
2021/04/04 11:12:39;;;;;;;9.93;4.50;;;;;;;;;;5079471;28;20185;-68
2021/04/04 11:15:12;;;;;;;9.17;4.87;;;;;;;;;;5090125;28;20186;-67
2021/04/04 11:17:37;;;;;;;14.00;4.77;;;;;;;;;;5077753;28;20239;-67
2021/04/04 11:20:04;;;;;;;8.37;4.27;;;;;;;;;;5077190;28;20217;-69
2021/04/04 11:22:29;;;;;;;9.97;4.60;;;;;;;;;;5076734;28;20173;-68
2021/04/04 11:24:54;;;;;;;12.90;4.50;;;;;;;;;;5083335;28;20169;-68
2021/04/04 11:27:34;;;;;;;7.77;4.20;;;;;;;;;;5086603;28;20286;-67
2021/04/04 11:30:00;;;;;;;10.83;4.70;;;;;;;;;;5082012;28;20878;-68
2021/04/04 11:32:25;;;;;;;8.77;4.37;;;;;;;;;;5078399;28;20275;-68
2021/04/04 11:35:03;;;;;;;8.97;4.17;;;;;;;;;;5082296;28;20203;-68
2021/04/04 11:37:28;;;;;;;9.63;4.40;;;;;;;;;;5084343;28;20196;-67
2021/04/04 11:40:09;;;;;;;7.53;4.60;;;;;;;;;;5086839;28;20200;-68
2021/04/04 11:42:34;;;;;;;10.40;5.43;;;;;;;;;;5078212;28;20195;-68
2021/04/04 11:44:59;;;;;;;11.53;4.90;;;;;;;;;;5082618;28;20572;-68
2021/04/04 11:47:25;;;;;;;10.00;4.03;;;;;;;;;;5083405;28;20273;-70
2021/04/04 11:49:50;;;;;;;9.93;4.53;;;;;;;;;;5079900;28;20188;-67
2021/04/04 11:52:15;;;;;;;11.57;5.77;;;;;;;;;;5083493;28;20184;-68
2021/04/04 11:54:49;;;;;;;9.43;4.43;;;;;;;;;;5081284;28;20260;-69
2021/04/04 11:57:22;;;;;;;9.70;5.23;;;;;;;;;;5078436;28;20464;-68
2021/04/04 11:59:54;;;;;;;8.73;4.50;;;;;;;;;;5083526;28;20185;-68
2021/04/04 12:02:20;;;;;;;8.70;4.60;;;;;;;;;;5079055;28;20184;-68
2021/04/04 12:04:57;;;;;;;9.83;3.97;;;;;;;;;;5086954;28;20195;-68
2021/04/04 12:07:23;;;;;;;10.10;4.60;;;;;;;;;;5087186;28;20211;-68
2021/04/04 12:09:48;;;;;;;6.80;4.57;;;;;;;;;;5080955;28;20230;-69
2021/04/04 12:12:14;;;;;;;8.77;4.87;;;;;;;;;;5086517;28;20206;-68
2021/04/04 12:14:50;;;;;;;12.27;4.37;;;;;;;;;;5080230;28;20238;-68
2021/04/04 12:17:15;;;;;;;9.20;4.77;;;;;;;;;;5083570;28;20211;-67
2021/04/04 12:19:42;;;;;;;7.87;4.47;;;;;;;;;;5085548;28;20177;-68
2021/04/04 12:22:07;;;;;;;12.00;5.17;;;;;;;;;;5082582;28;20641;-68
2021/04/04 12:24:44;;;;;;;9.33;4.40;;;;;;;;;;5081911;28;20209;-68
2021/04/04 12:27:10;;;;;;;7.70;4.40;;;;;;;;;;5089012;28;20198;-68
2021/04/04 12:29:48;;;;;;;10.33;4.97;;;;;;;;;;5074915;28;20185;-69
2021/04/04 12:32:18;;;;;;;9.63;4.13;;;;;;;;;;5084733;28;20669;-69
2021/04/04 12:34:43;;;;;;;10.17;5.40;;;;;;;;;;5080078;28;20203;-69
2021/04/04 12:37:18;;;;;;;10.07;4.23;;;;;;;;;;5078966;28;20196;-69
2021/04/04 12:39:44;;;;;;;9.77;4.77;;;;;;;;;;5081716;28;20179;-68
2021/04/04 12:42:10;;;;;;;9.00;4.03;;;;;;;;;;5079334;28;20169;-69
2021/04/04 12:44:36;;;;;;;10.27;4.97;;;;;;;;;;5082050;28;20239;-68
2021/04/04 12:47:05;;;;;;;10.63;4.30;;;;;;;;;;5087194;28;20549;-68
2021/04/04 12:49:30;;;;;;;9.30;4.90;;;;;;;;;;5079772;28;20180;-68
2021/04/04 12:51:55;;;;;;;7.53;4.70;;;;;;;;;;5082313;28;20257;-69
2021/04/04 12:54:24;;;;;;;10.30;4.53;;;;;;;;;;5080660;28;20650;-68
2021/04/04 12:56:49;;;;;;;6.18;4.13;;;;;;;;;;5084484;28;20266;-68
2021/04/04 12:59:15;;;;;;;8.13;4.68;;;;;;;;;;5081813;28;20168;-68
2021/04/04 13:01:42;;;;;;;13.30;5.47;;;;;;;;;;5088454;28;20219;-68
2021/04/04 13:04:15;;;;;;;7.77;4.93;;;;;;;;;;5083452;28;20195;-67
2021/04/04 13:06:40;;;;;;;8.17;5.47;;;;;;;;;;5083287;28;20181;-68
2021/04/04 13:09:05;;;;;;;10.05;5.57;;;;;;;;;;5082464;28;20176;-68
2021/04/04 13:11:30;;;;;;;10.20;4.97;;;;;;;;;;5086099;28;20204;-68
2021/04/04 13:13:55;;;;;;;7.47;4.50;;;;;;;;;;5081682;28;20291;-67
2021/04/04 13:16:24;;;;;;;9.70;5.43;;;;;;;;;;5081502;28;20196;-67
2021/04/04 13:18:51;;;;;;;12.50;5.57;;;;;;;;;;5080138;28;20267;-68
2021/04/04 13:21:21;;;;;;;8.57;5.17;;;;;;;;;;5082978;28;20681;-67
2021/04/04 13:23:53;;;;;;;11.50;5.50;;;;;;;;;;5081280;28;20181;-68
2021/04/04 13:26:23;;;;;;;8.27;5.20;;;;;;;;;;5082960;28;20173;-67
2021/04/04 13:29:00;;;;;;;9.73;5.40;;;;;;;;;;5085862;28;20179;-67
2021/04/04 13:31:26;;;;;;;10.83;5.30;;;;;;;;;;5085350;28;20678;-67
2021/04/04 13:34:10;;;;;;;10.70;5.30;;;;;;;;;;5079627;28;20207;-68
2021/04/04 13:36:37;;;;;;;9.80;4.63;;;;;;;;;;5077318;28;20183;-70
2021/04/04 13:39:06;;;;;;;10.03;4.93;;;;;;;;;;5081454;28;20193;-69
2021/04/04 13:41:33;;;;;;;9.97;6.30;;;;;;;;;;5081182;28;20208;-69
2021/04/04 13:43:59;;;;;;;9.57;5.47;;;;;;;;;;5086988;28;20641;-70
2021/04/04 13:46:29;;;;;;;10.13;5.33;;;;;;;;;;5078762;28;20207;-68
2021/04/04 13:48:55;;;;;;;11.68;5.30;;;;;;;;;;5084072;28;20176;-67
2021/04/04 13:51:21;;;;;;;12.07;5.27;;;;;;;;;;5081384;28;20253;-68
2021/04/04 13:53:46;;;;;;;11.77;5.13;;;;;;;;;;5081850;28;20619;-70
2021/04/04 13:56:15;;;;;;;9.50;5.27;;;;;;;;;;5076748;28;20180;-70
2021/04/04 13:58:41;;;;;;;12.97;6.23;;;;;;;;;;5084257;28;20398;-69
2021/04/04 14:01:27;;;;;;;10.80;5.73;;;;;;;;;;5084540;28;20701;-69
2021/04/04 14:03:53;;;;;;;7.13;5.40;;;;;;;;;;5079573;28;20204;-69
2021/04/04 14:06:18;;;;;;;11.83;5.80;;;;;;;;;;5079110;28;20189;-69
2021/04/04 14:08:44;;;;;;;10.10;4.70;;;;;;;;;;5081110;28;20210;-70
2021/04/04 14:11:11;;;;;;;10.30;4.90;;;;;;;;;;5084140;28;20697;-69
2021/04/04 14:13:36;;;;;;;9.53;5.10;;;;;;;;;;5080723;28;20258;-69
2021/04/04 14:16:02;;;;;;;9.77;4.93;;;;;;;;;;5082322;28;20191;-69
2021/04/04 14:18:31;;;;;;;10.07;4.90;;;;;;;;;;5081393;28;20616;-69
2021/04/04 14:20:56;;;;;;;13.40;5.33;;;;;;;;;;5075846;28;20747;-69
2021/04/04 14:23:21;;;;;;;12.47;5.30;;;;;;;;;;5088164;28;20176;-70
2021/04/04 14:25:47;;;;;;;13.10;5.28;;;;;;;;;;5082756;28;20185;-70
2021/04/04 14:28:12;;;;;;;8.60;4.72;;;;;;;;;;5087920;28;20197;-69
2021/04/04 14:30:37;;;;;;;9.52;5.20;;;;;;;;;;5086602;28;20612;-69
2021/04/04 14:33:03;;;;;;;12.20;5.00;;;;;;;;;;5091102;28;20177;-66
2021/04/04 14:35:28;;;;;;;9.00;5.50;;;;;;;;;;5090987;28;20210;-70
2021/04/04 14:37:53;;;;;;;7.17;4.70;;;;;;;;;;5085425;28;20201;-68
2021/04/04 14:40:18;;;;;;;11.57;4.95;;;;;;;;;;5085554;28;20671;-68
2021/04/04 14:42:43;;;;;;;9.60;5.10;;;;;;;;;;5090533;28;20187;-69